Latest Weather Observations for Tindal

IDD60801

Issued at 8:51 am CST Wednesday 19 June 2019 (issued every 10 minutes, with the page automatically refreshed every 10 minutes)

About weather observations | Map of weather stations | Latest weather observations for NT | Other Formats
Station Details ID: 014932 Name: TINDAL RAAF Lat: -14.52 Lon: 132.38 Height: 133.6 m
Data from the previous 72 hours. | See also: Recent months at Tindal
Date/Time
CST
Temp
°C
App
Temp
°C
Dew
Point
°C
Rel
Hum
%
Delta-T
°C
Wind Press
QNH
hPa
Press
MSL
hPa
Rain since
9am
mm
Dir  Spd
km/h
Gust
km/h
Spd
kts
Gust
kts
19/08:30am 16.2 11.8 0.3 34 6.9 SE 13 20 7 11 1018.6 1018.1 0.0
19/08:00am 14.2 9.8 0.5 39 5.8 SE 13 17 7 9 1018.5 1018.0 0.0
19/07:30am 11.9 7.3 1.3 48 4.5 SE 15 17 8 9 1018.3 1017.8 0.0
19/07:00am 10.0 5.4 1.4 55 3.6 SE 15 15 8 8 1017.9 1017.4 0.0
19/06:30am 10.8 6.2 1.6 53 3.9 SE 15 17 8 9 1017.7 1017.2 0.0
19/06:00am 10.1 5.6 2.2 58 3.4 SE 15 17 8 9 1017.4 1016.9 0.0
19/05:30am 10.4 6.4 2.7 59 3.3 SE 13 13 7 7 1017.2 1016.7 0.0
19/05:00am 10.2 6.2 3.0 61 3.1 SE 13 15 7 8 1017.1 1016.6 0.0
19/04:30am 11.7 8.5 3.0 55 3.8 SE 9 11 5 6 1017.0 1016.5 0.0
19/04:00am 11.4 7.5 3.2 57 3.6 SE 13 15 7 8 1016.9 1016.4 0.0
19/03:30am 12.0 8.1 3.3 55 3.9 SE 13 15 7 8 1017.0 1016.5 0.0
19/03:00am 13.4 9.1 3.5 51 4.5 SE 15 17 8 9 1016.8 1016.2 0.0
19/02:30am 14.5 10.3 3.9 49 4.9 SE 15 17 8 9 1016.8 1016.2 0.0
19/02:00am 14.2 10.1 4.2 51 4.6 SE 15 17 8 9 1016.9 1016.4 0.0
19/01:30am 14.1 10.1 4.7 53 4.4 SSE 15 15 8 8 1016.9 1016.4 0.0
19/01:00am 14.1 10.1 4.9 54 4.3 SE 15 15 8 8 1016.9 1016.4 0.0
19/12:30am 15.4 12.2 5.0 50 4.9 SE 11 13 6 7 1016.7 1016.1 0.0
19/12:00am 15.2 11.6 5.1 51 4.8 SSE 13 15 7 8 1016.5 1015.9 0.0
 
Date/Time
CST
Temp
°C
App
Temp
°C
Dew
Point
°C
Rel
Hum
%
Delta-T
°C
Wind Press
QNH
hPa
Press
MSL
hPa
Rain since
9am
mm
Dir  Spd
km/h
Gust
km/h
Spd
kts
Gust
kts
18/11:30pm 14.5 11.4 5.6 55 4.2 SE 11 15 6 8 1016.5 1015.9 0.0
18/11:00pm 16.4 13.3 5.7 49 5.2 SSE 11 11 6 6 1016.4 1015.8 0.0
18/10:30pm 16.6 13.5 5.6 48 5.3 SE 11 13 6 7 1016.4 1015.8 0.0
18/10:00pm 16.4 13.8 6.0 50 5.1 ESE 9 11 5 6 1016.4 1015.8 0.0
18/09:30pm 16.4 13.3 5.7 49 5.2 SE 11 11 6 6 1016.1 1015.5 0.0
18/09:00pm 17.1 14.4 5.7 47 5.6 SE 9 11 5 6 1015.9 1015.3 0.0
18/08:30pm 18.8 16.1 5.6 42 6.5 SE 9 9 5 5 1015.4 1014.9 0.0
18/08:00pm 19.6 16.8 5.3 39 7.0 SE 9 11 5 6 1015.1 1014.6 0.0
18/07:30pm 23.6 20.6 4.0 28 9.7 ESE 9 11 5 6 1014.8 1014.3 0.0
18/07:00pm 24.5 21.5 4.3 27 10.1 ESE 9 11 5 6 1014.6 1014.1 0.0
18/06:30pm 25.4 22.0 4.0 25 10.7 ESE 11 13 6 7 1014.2 1013.7 0.0
18/06:00pm 28.1 23.1 3.7 21 12.3 ESE 19 28 10 15 1013.9 1013.4 0.0
18/05:30pm 29.0 24.8 3.8 20 12.8 SE 15 26 8 14 1013.6 1013.1 0.0
18/05:00pm 29.8 24.6 3.7 19 13.3 SE 20 28 11 15 1013.2 1012.7 0.0
18/04:30pm 30.2 24.1 4.8 20 13.3 SSE 26 37 14 20 1013.1 1012.6 0.0
18/04:00pm 30.8 26.1 5.3 20 13.5 SE 19 30 10 16 1013.3 1012.8 0.0
18/03:30pm 30.8 26.1 5.3 20 13.5 ESE 19 32 10 17 1013.6 1013.1 0.0
18/03:00pm 30.6 25.3 5.1 20 13.4 SE 22 33 12 18 1013.9 1013.4 0.0
18/02:32pm 30.4 23.7 5.6 21 13.1 SE 30 48 16 26 1014.2 1013.7 0.0
18/02:30pm 30.5 23.4 5.7 21 13.2 SE 32 48 17 26 1014.2 1013.7 0.0
18/02:11pm 30.3 24.1 6.2 22 12.9 SE 28 48 15 26 1014.4 1013.9 0.0
18/02:00pm 30.5 25.1 6.4 22 12.9 SE 24 41 13 22 1014.5 1014.0 0.0
18/01:30pm 30.0 24.9 7.8 25 12.2 E 24 30 13 16 1015.0 1014.5 0.0
18/01:00pm 30.5 25.2 8.3 25 12.3 E 26 35 14 19 1015.8 1015.2 0.0
18/12:30pm 29.7 24.9 8.7 27 11.7 ESE 24 33 13 18 1016.3 1015.7 0.0
18/12:00pm 28.9 24.6 10.6 32 10.4 ESE 24 35 13 19 1016.7 1016.1 0.0
18/11:30am 27.8 23.5 12.2 38 9.1 ESE 26 33 14 18 1017.0 1016.5 0.0
18/11:00am 27.4 23.9 12.2 39 8.8 ESE 22 35 12 19 1017.5 1017.0 0.0
18/10:30am 26.0 21.7 13.2 45 7.5 ESE 28 37 15 20 1017.8 1017.3 0.0
18/10:00am 24.9 21.5 14.7 53 6.1 ESE 26 33 14 18 1018.1 1017.6 0.0
18/09:30am 23.7 21.1 14.9 57 5.3 ESE 22 30 12 16 1018.2 1017.7 0.0
18/09:00am 21.8 20.2 13.9 61 4.6 ESE 15 22 8 12 1018.1 1017.6 0.0
18/08:30am 19.7 18.1 12.9 65 3.9 ESE 13 17 7 9 1017.8 1017.3 0.0
18/08:00am 16.8 16.2 11.7 72 2.8 ESE 6 9 3 5 1017.5 1017.0 0.0
18/07:30am 13.7 12.8 10.5 81 1.7 SSE 6 7 3 4 1017.2 1016.7 0.0
18/07:00am 13.6 13.7 10.2 80 1.8 CALM 0 0 0 0 1016.8 1016.2 0.0
18/06:30am 13.5 13.5 9.9 79 1.9 CALM 0 0 0 0 1016.6 1016.0 0.0
18/06:00am 14.0 13.0 10.2 78 2.0 SE 6 7 3 4 1016.7 1016.1 0.0
18/05:30am 14.2 14.3 10.0 76 2.2 CALM 0 0 0 0 1016.7 1016.1 0.0
18/05:00am 15.0 14.0 10.4 74 2.4 SE 6 6 3 3 1016.6 1016.0 0.0
18/04:30am 15.1 13.6 10.5 74 2.4 SSE 9 9 5 5 1016.5 1015.9 0.0
18/04:00am 14.8 13.2 10.2 74 2.4 SSE 9 9 5 5 1016.3 1015.7 0.0
18/03:30am 14.3 12.3 10.1 76 2.2 SSE 11 11 6 6 1016.3 1015.7 0.0
18/03:00am 15.3 14.1 10.3 72 2.6 SE 7 9 4 5 1016.2 1015.6 0.0
18/02:30am 15.8 14.5 10.1 69 3.0 SE 7 9 4 5 1016.2 1015.6 0.0
18/02:00am 16.7 15.4 10.1 65 3.5 SE 7 9 4 5 1016.2 1015.6 0.0
18/01:30am 16.6 15.0 10.2 66 3.4 SSE 9 11 5 6 1016.4 1015.8 0.0
18/01:00am 16.7 14.7 10.1 65 3.5 SSE 11 13 6 7 1016.2 1015.6 0.0
18/12:30am 16.9 14.5 10.1 64 3.6 SSE 13 15 7 8 1016.2 1015.6 0.0
18/12:27am 17.5 15.5 10.1 62 3.9 SSE 11 15 6 8 1016.2 1015.6 0.0
18/12:00am 22.5 21.0 10.6 47 6.6 ENE 9 13 5 7 1016.2 1015.6 0.0
 
Date/Time
CST
Temp
°C
App
Temp
°C
Dew
Point
°C
Rel
Hum
%
Delta-T
°C
Wind Press
QNH
hPa
Press
MSL
hPa
Rain since
9am
mm
Dir  Spd
km/h
Gust
km/h
Spd
kts
Gust
kts
17/11:30pm 23.1 21.2 10.5 45 7.0 ENE 11 13 6 7 1016.2 1015.6 0.0
17/11:00pm 22.9 20.9 10.0 44 7.1 ENE 11 13 6 7 1016.2 1015.6 0.0
17/10:30pm 23.7 21.1 9.3 40 7.8 ENE 13 17 7 9 1016.1 1015.5 0.0
17/10:00pm 21.6 19.4 9.5 46 6.5 E 11 17 6 9 1015.8 1015.2 0.0
17/09:30pm 19.1 18.0 10.1 56 4.8 ESE 6 6 3 3 1015.3 1014.8 0.0
17/09:00pm 20.2 19.1 10.0 52 5.5 E 6 7 3 4 1015.1 1014.6 0.0
17/08:30pm 20.6 19.3 9.8 50 5.8 ESE 7 9 4 5 1014.9 1014.4 0.0
17/08:00pm 21.9 20.6 9.8 46 6.6 ESE 7 9 4 5 1014.5 1014.0 0.0
17/07:30pm 24.1 22.5 8.9 38 8.2 E 7 7 4 4 1014.2 1013.7 0.0
17/07:00pm 26.7 24.7 8.6 32 9.9 ESE 9 11 5 6 1013.8 1013.3 0.0
17/06:30pm 27.5 25.0 8.4 30 10.4 ESE 11 13 6 7 1013.5 1013.0 0.0
17/06:00pm 29.7 26.1 8.2 26 11.9 ESE 17 20 9 11 1013.2 1012.7 0.0
17/05:30pm 30.8 26.7 8.5 25 12.4 ESE 20 26 11 14 1013.0 1012.5 0.0
17/05:00pm 31.4 26.9 8.4 24 12.8 ESE 22 37 12 20 1012.7 1012.2 0.0
17/04:30pm 32.0 28.0 8.9 24 13.0 ESE 20 30 11 16 1012.4 1011.9 0.0
17/04:00pm 31.9 27.8 8.8 24 13.0 ESE 20 33 11 18 1012.3 1011.8 0.0
17/03:30pm 32.2 28.2 10.3 26 12.6 ESE 22 32 12 17 1012.6 1012.1 0.0
17/03:00pm 32.3 28.6 11.5 28 12.2 ESE 22 35 12 19 1012.9 1012.4 0.0
17/02:30pm 31.9 27.6 10.6 27 12.3 ESE 24 35 13 19 1013.3 1012.8 0.0
17/02:00pm 31.5 27.5 11.8 30 11.6 E 24 39 13 21 1013.8 1013.3 0.0
17/01:30pm 31.5 26.6 11.3 29 11.8 E 28 39 15 21 1014.3 1013.8 0.0
17/01:00pm 31.1 26.8 12.0 31 11.3 E 26 37 14 20 1015.0 1014.5 0.0
17/12:30pm 31.7 28.8 13.0 32 11.2 E 20 26 11 14 1015.8 1015.2 0.0
17/12:00pm 30.6 26.4 12.5 33 10.7 ESE 26 39 14 21 1016.2 1015.6 0.0
17/11:30am 30.2 25.7 12.6 34 10.4 ESE 28 39 15 21 1016.8 1016.2 0.0
17/11:00am 29.2 24.7 12.6 36 9.8 ESE 28 39 15 21 1017.1 1016.6 0.0
17/10:30am 28.9 24.5 12.8 37 9.5 ESE 28 37 15 20 1017.2 1016.7 0.0
17/10:00am 28.3 24.9 12.6 38 9.2 ESE 22 35 12 19 1017.3 1016.8 0.0
17/09:30am 26.6 25.6 13.3 43 7.8 ESE 11 15 6 8 1017.5 1017.0 0.0
17/09:00am 23.9 23.4 13.7 53 6.0 SE 9 13 5 7 1017.5 1017.0 0.0
17/08:30am 21.4 20.7 13.1 59 4.8 ESE 9 11 5 6 1017.3 1016.8 0.0
17/08:00am 19.0 18.5 12.5 66 3.7 ESE 7 11 4 6 1017.2 1016.7 0.0
17/07:30am 16.9 16.3 12.4 75 2.5 SE 7 9 4 5 1016.9 1016.4 0.0
17/07:00am 16.8 15.6 12.7 77 2.3 SE 11 11 6 6 1016.9 1016.4 0.0
17/06:30am 16.9 16.1 12.8 77 2.3 SE 9 11 5 6 1016.8 1016.2 0.0
17/06:00am 16.7 15.3 12.3 75 2.4 SE 11 11 6 6 1016.6 1016.0 0.0
17/05:30am 17.8 16.6 12.7 72 2.9 ESE 11 13 6 7 1016.3 1015.7 0.0
17/05:00am 17.2 15.8 12.3 73 2.7 SE 11 15 6 8 1016.3 1015.7 0.0
17/04:30am 17.2 15.1 12.5 74 2.6 SE 15 24 8 13 1015.6 1015.1 0.0
17/04:00am 16.2 14.8 12.2 77 2.2 SE 11 13 6 7 1015.0 1014.5 0.0
17/03:30am 16.5 16.0 12.1 75 2.4 SE 6 6 3 3 1014.6 1014.1 0.0
17/03:00am 17.2 16.5 12.1 72 2.8 SSE 7 7 4 4 1014.6 1014.1 0.0
17/02:30am 18.1 17.5 12.3 69 3.2 SSE 7 7 4 4 1014.6 1014.1 0.0
17/02:00am 18.7 18.2 12.5 67 3.5 SE 7 9 4 5 1014.7 1014.2 0.0
17/01:30am 19.3 18.7 12.3 64 3.9 SE 7 9 4 5 1014.9 1014.4 0.0
17/01:00am 22.6 21.5 12.0 51 6.0 E 9 13 5 7 1015.1 1014.6 0.0
17/12:30am 24.0 22.2 12.0 47 6.9 ENE 13 19 7 10 1014.9 1014.4 0.0
17/12:00am 24.1 22.3 12.1 47 6.9 NE 13 17 7 9 1015.0 1014.5 0.0
 
Date/Time
CST
Temp
°C
App
Temp
°C
Dew
Point
°C
Rel
Hum
%
Delta-T
°C
Wind Press
QNH
hPa
Press
MSL
hPa
Rain since
9am
mm
Dir  Spd
km/h
Gust
km/h
Spd
kts
Gust
kts
16/11:30pm 24.3 22.6 12.6 48 6.8 ENE 13 17 7 9 1015.0 1014.5 0.0
16/11:00pm 19.6 19.1 12.6 64 4.0 E 7 9 4 5 1015.0 1014.5 0.0
16/10:30pm 19.8 19.5 12.6 63 4.1 SE 6 7 3 4 1014.9 1014.4 0.0
16/10:00pm 20.3 21.0 12.3 60 4.5 CALM 0 0 0 0 1014.8 1014.3 0.0
16/09:30pm 21.0 20.6 12.4 58 4.9 SSE 6 7 3 4 1014.4 1013.9 0.0
16/09:00pm 21.3 20.8 12.2 56 5.1 SE 6 7 3 4 1014.2 1013.7 0.0
16/08:30pm 23.2 22.7 11.9 49 6.4 E 6 7 3 4 1014.0 1013.5 0.0
16/08:00pm 25.5 24.7 11.7 42 7.9 E 7 9 4 5 1013.6 1013.1 0.0
16/07:30pm 26.8 25.4 10.9 37 9.0 E 9 11 5 6 1013.3 1012.8 0.0
16/07:00pm 27.9 25.8 11.0 35 9.7 ESE 13 17 7 9 1012.9 1012.4 0.0
16/06:30pm 28.9 26.3 10.6 32 10.5 ESE 15 19 8 10 1012.6 1012.1 0.0
16/06:00pm 30.5 27.5 10.5 29 11.5 ESE 17 26 9 14 1012.4 1011.9 0.0
16/05:30pm 31.6 28.3 10.9 28 12.0 ESE 19 28 10 15 1012.1 1011.6 0.0
16/05:00pm 32.3 28.4 10.9 27 12.5 ESE 22 33 12 18 1011.9 1011.4 0.0
16/04:30pm 32.5 29.1 11.1 27 12.5 ESE 20 33 11 18 1011.7 1011.2 0.0
16/04:00pm 32.6 27.7 10.0 25 13.0 ESE 26 33 14 18 1011.8 1011.3 0.0
16/03:30pm 33.1 29.1 10.4 25 13.2 ESE 22 33 12 18 1012.1 1011.6 0.0
16/03:00pm 32.7 29.0 10.1 25 13.0 ESE 20 33 11 18 1012.2 1011.7 0.0
16/02:30pm 33.0 29.5 10.9 26 12.9 ESE 20 32 11 17 1012.5 1012.0 0.0
16/02:00pm 33.2 30.7 12.2 28 12.5 ESE 17 26 9 14 1012.9 1012.4 0.0
16/01:30pm 32.3 29.3 12.5 30 11.8 ESE 20 28 11 15 1013.5 1013.0 0.0
16/01:00pm 31.6 28.0 11.9 30 11.6 E 22 33 12 18 1014.1 1013.6 0.0
16/12:30pm 31.9 28.4 12.2 30 11.7 ESE 22 33 12 18 1014.6 1014.1 0.0
16/12:00pm 31.6 28.4 11.9 30 11.6 ENE 20 33 11 18 1015.0 1014.5 0.0
16/11:30am 31.0 28.6 12.8 32 10.9 ENE 17 28 9 15 1015.5 1015.0 0.0
16/11:00am 30.1 27.9 13.4 36 10.0 E 17 24 9 13 1016.0 1015.4 0.0
16/10:30am 29.5 27.7 13.3 37 9.7 ENE 15 24 8 13 1016.4 1015.8 0.0
16/10:00am 28.0 26.4 13.9 42 8.5 ENE 15 20 8 11 1016.5 1015.9 0.0
16/09:30am 27.1 26.7 14.1 44 7.8 ENE 9 15 5 8 1016.4 1015.8 0.0
16/09:00am 23.7 23.9 14.7 57 5.4 SSE 7 9 4 5 1016.3 1015.7 0.0

Other formats

Comma delimited format used in spreadsheet applications
http://www.bom.gov.au/fwo/IDD60801/IDD60801.94131.axf

JavaScript Object Notation format (JSON) in row-major order
http://www.bom.gov.au/fwo/IDD60801/IDD60801.94131.json

Data quality

Most of these data are generated automatically and are frequently updated. Quality checks on data are not normally performed. It is possible for incorrect values to appear. Refer to information at About Latest Weather Observations and please check the disclaimer before using these data.